createdAt,value
2023-05-21T00:02:11.427Z,98704.75
2023-05-21T00:05:15.031Z,98702.11
2023-05-21T00:08:17.005Z,98698.24
2023-05-21T00:11:18.810Z,98700.36
2023-05-21T00:14:20.565Z,98692.45
2023-05-21T00:17:22.789Z,98691.49
2023-05-21T00:20:24.682Z,98691.90
2023-05-21T00:23:26.431Z,98692.08
2023-05-21T00:26:28.178Z,98696.74
2023-05-21T00:29:30.988Z,98696.59
2023-05-21T00:32:32.718Z,98697.70
2023-05-21T00:35:34.627Z,98695.27
2023-05-21T00:38:37.481Z,98688.85
2023-05-21T00:41:42.557Z,98690.28
2023-05-21T00:44:45.712Z,98689.50
2023-05-21T00:47:47.811Z,98689.59
2023-05-21T00:50:49.985Z,98686.09
2023-05-21T00:53:54.497Z,98687.61
2023-05-21T00:56:56.574Z,98679.20
2023-05-21T00:59:58.279Z,98679.84
2023-05-21T01:03:00.617Z,98671.76
2023-05-21T01:06:04.639Z,98672.01
2023-05-21T01:09:06.635Z,98670.65
2023-05-21T01:12:10.171Z,98664.24
2023-05-21T01:15:12.576Z,98657.59
2023-05-21T01:18:15.344Z,98655.58
2023-05-21T01:21:19.621Z,98654.48
2023-05-21T01:24:21.604Z,98652.73
2023-05-21T01:27:23.332Z,98650.65
2023-05-21T01:30:25.962Z,98647.80
2023-05-21T01:33:36.745Z,98645.17
2023-05-21T01:36:44.723Z,98643.98
2023-05-21T01:39:55.855Z,98639.92
2023-05-21T01:42:58.192Z,98636.77
2023-05-21T01:46:01.633Z,98629.15
2023-05-21T01:49:05.208Z,98627.33
2023-05-21T01:52:07.057Z,98630.34
2023-05-21T01:55:09.269Z,98625.83
2023-05-21T01:58:10.967Z,98623.14
2023-05-21T02:01:12.741Z,98619.16
2023-05-21T02:04:14.516Z,98615.77
2023-05-21T02:07:17.707Z,98614.89
2023-05-21T02:10:19.628Z,98614.02
2023-05-21T02:13:24.998Z,98610.30
2023-05-21T02:16:27.934Z,98611.79
2023-05-21T02:19:29.810Z,98609.73
2023-05-21T02:22:31.592Z,98610.61
2023-05-21T02:25:33.574Z,98611.23
2023-05-21T02:28:35.719Z,98608.77
2023-05-21T02:31:39.208Z,98610.27
2023-05-21T02:34:44.565Z,98610.91
2023-05-21T02:37:46.624Z,98605.29
2023-05-21T02:40:53.057Z,98604.33
2023-05-21T02:43:55.492Z,98602.17
2023-05-21T02:46:57.376Z,98600.02
2023-05-21T02:50:00.309Z,98598.76
2023-05-21T02:53:02.109Z,98593.99
2023-05-21T02:56:04.548Z,98598.42
2023-05-21T02:59:06.421Z,98593.51
2023-05-21T03:02:08.903Z,98590.48
2023-05-21T03:05:10.835Z,98589.22
2023-05-21T03:08:12.688Z,98585.65
2023-05-21T03:11:14.674Z,98581.54
2023-05-21T03:14:16.619Z,98577.80
2023-05-21T03:17:18.451Z,98581.20
2023-05-21T03:20:20.450Z,98576.63
2023-05-21T03:23:22.224Z,98577.64
2023-05-21T03:26:26.955Z,98576.77
2023-05-21T03:29:29.024Z,98572.82
2023-05-21T03:32:33.266Z,98576.10
2023-05-21T03:35:35.697Z,98578.59
2023-05-21T03:38:37.993Z,98578.45
2023-05-21T03:41:40.340Z,98579.25
2023-05-21T03:44:45.351Z,98582.54
2023-05-21T03:47:58.817Z,98590.55
2023-05-21T03:51:00.989Z,98590.02
2023-05-21T03:54:02.793Z,98587.05
2023-05-21T03:57:04.714Z,98589.92
2023-05-21T04:00:08.432Z,98585.35
2023-05-21T04:03:17.710Z,98590.52
2023-05-21T04:06:20.351Z,98591.17
2023-05-21T04:09:22.206Z,98596.42
2023-05-21T04:12:23.961Z,98597.23
2023-05-21T04:15:26.973Z,98598.03
2023-05-21T04:18:28.800Z,98601.75
2023-05-21T04:21:31.675Z,98603.17
2023-05-21T04:24:33.442Z,98604.03
2023-05-21T04:27:55.454Z,98602.17
2023-05-21T04:30:57.387Z,98604.60
2023-05-21T04:33:59.219Z,98604.41
2023-05-21T04:37:01.757Z,98607.52
2023-05-21T04:40:04.040Z,98608.85
2023-05-21T04:43:05.839Z,98610.52
2023-05-21T04:46:09.150Z,98607.63
2023-05-21T04:49:10.980Z,98608.65
2023-05-21T04:52:13.691Z,98609.39
2023-05-21T04:55:18.454Z,98610.41
2023-05-21T04:58:20.542Z,98612.39
2023-05-21T05:01:23.065Z,98609.63
2023-05-21T05:04:25.210Z,98609.02
2023-05-21T05:07:26.879Z,98605.92
2023-05-21T05:10:28.726Z,98604.80
2023-05-21T05:13:30.758Z,98595.86
2023-05-21T05:16:33.597Z,98597.23
2023-05-21T05:19:35.951Z,98595.08
2023-05-21T05:22:38.989Z,98596.06
2023-05-21T05:25:40.814Z,98595.25
2023-05-21T05:28:43.464Z,98596.23
2023-05-21T05:31:45.356Z,98593.75
2023-05-21T05:34:47.599Z,98593.09
2023-05-21T05:37:50.067Z,98591.30
2023-05-21T05:40:51.824Z,98588.59
2023-05-21T05:43:53.737Z,98594.52
2023-05-21T05:46:56.452Z,98593.95
2023-05-21T05:49:58.160Z,98595.62
2023-05-21T05:53:00.232Z,98596.81
2023-05-21T05:56:01.967Z,98599.33
2023-05-21T05:59:05.442Z,98602.28
2023-05-21T06:02:09.783Z,98601.46
2023-05-21T06:05:11.721Z,98596.52
2023-05-21T06:08:13.533Z,98595.67
2023-05-21T06:11:16.584Z,98596.52
2023-05-21T06:14:18.314Z,98596.42
2023-05-21T06:17:20.166Z,98594.64
2023-05-21T06:20:22.595Z,98595.30
2023-05-21T06:23:24.501Z,98598.69
2023-05-21T06:26:26.390Z,98599.85
2023-05-21T06:29:28.263Z,98599.16
2023-05-21T06:32:30.143Z,98593.52
2023-05-21T06:35:34.272Z,98591.84
2023-05-21T06:38:36.162Z,98589.85
2023-05-21T06:41:37.897Z,98583.16
2023-05-21T06:44:55.677Z,98584.08
2023-05-21T06:48:03.061Z,98576.52
2023-05-21T06:51:04.931Z,98579.42
2023-05-21T06:54:07.823Z,98571.33
2023-05-21T06:57:10.061Z,98572.24
2023-05-21T07:00:12.533Z,98569.61
2023-05-21T07:03:15.301Z,98572.88
2023-05-21T07:06:17.622Z,98571.34
2023-05-21T07:09:19.201Z,98570.96
2023-05-21T07:12:21.421Z,98570.77
2023-05-21T07:15:23.371Z,98569.42
2023-05-21T07:18:25.454Z,98569.48
2023-05-21T07:21:27.183Z,98571.81
2023-05-21T07:24:29.121Z,98565.08
2023-05-21T07:27:31.211Z,98557.73
2023-05-21T07:30:33.146Z,98556.98
2023-05-21T07:33:36.072Z,98558.07
2023-05-21T07:36:37.931Z,98550.44
2023-05-21T07:39:39.995Z,98551.06
2023-05-21T07:42:41.703Z,98550.63
2023-05-21T07:45:43.624Z,98549.71
2023-05-21T07:48:45.888Z,98545.46
2023-05-21T07:51:48.068Z,98548.58
2023-05-21T07:54:50.536Z,98542.77
2023-05-21T07:57:52.657Z,98541.70
2023-05-21T08:01:00.169Z,98541.66
2023-05-21T08:04:05.467Z,98540.46
2023-05-21T08:07:07.540Z,98539.63
2023-05-21T08:10:09.513Z,98541.10
2023-05-21T08:13:11.763Z,98542.13
2023-05-21T08:16:13.875Z,98546.27
2023-05-21T08:19:16.157Z,98540.67
2023-05-21T08:22:17.933Z,98545.21
2023-05-21T08:25:20.282Z,98540.92
2023-05-21T08:28:22.967Z,98544.05
2023-05-21T08:31:26.701Z,98544.60
2023-05-21T08:34:29.529Z,98541.26
2023-05-21T08:37:54.183Z,98544.70
2023-05-21T08:41:21.605Z,98541.70
2023-05-21T08:44:26.042Z,98539.98
2023-05-21T08:47:33.750Z,98541.17
2023-05-21T08:50:37.460Z,98538.62
2023-05-21T08:53:45.176Z,98536.22
2023-05-21T08:56:48.898Z,98535.89
2023-05-21T08:59:51.435Z,98537.20
2023-05-21T09:03:01.486Z,98537.65
2023-05-21T09:06:03.773Z,98534.48
2023-05-21T09:09:33.191Z,98534.18
2023-05-21T09:12:35.779Z,98537.90
2023-05-21T09:15:38.257Z,98537.68
2023-05-21T09:18:41.376Z,98539.01
2023-05-21T09:21:54.942Z,98539.59
2023-05-21T09:24:59.022Z,98542.84
2023-05-21T09:28:01.397Z,98544.20
2023-05-21T09:31:06.262Z,98541.88
2023-05-21T09:34:13.603Z,98536.65
2023-05-21T09:37:27.017Z,98538.38
2023-05-21T09:40:30.052Z,98535.98
2023-05-21T09:43:32.409Z,98535.06
2023-05-21T09:46:39.905Z,98531.68
2023-05-21T09:49:43.617Z,98528.50
2023-05-21T09:52:46.245Z,98528.55
2023-05-21T09:55:57.028Z,98529.16
2023-05-21T09:59:06.422Z,98526.00
2023-05-21T10:02:21.714Z,98523.83
2023-05-21T10:05:27.456Z,98521.80
2023-05-21T10:08:35.659Z,98515.95
2023-05-21T10:11:39.265Z,98515.69
2023-05-21T10:14:44.268Z,98518.38
2023-05-21T10:17:48.144Z,98519.80
2023-05-21T10:20:50.827Z,98515.35
2023-05-21T10:23:53.682Z,98512.58
2023-05-21T10:26:55.430Z,98508.14
2023-05-21T10:29:59.034Z,98514.05
2023-05-21T10:33:01.365Z,98510.77
2023-05-21T10:36:03.470Z,98515.89
2023-05-21T10:39:07.159Z,98518.07
2023-05-21T10:42:20.337Z,98515.91
2023-05-21T10:45:45.666Z,98506.11
2023-05-21T10:48:55.766Z,98505.98
2023-05-21T10:52:24.393Z,98502.64
2023-05-21T10:55:41.649Z,98502.73
2023-05-21T10:59:17.828Z,98504.73
2023-05-21T11:02:20.828Z,98505.40
2023-05-21T11:05:50.204Z,98496.69
2023-05-21T11:08:54.919Z,98500.59
2023-05-21T11:11:58.439Z,98496.12
2023-05-21T11:15:00.303Z,98494.47
2023-05-21T11:18:01.990Z,98497.21
2023-05-21T11:21:09.772Z,98493.02
2023-05-21T11:24:18.706Z,98487.13
2023-05-21T11:27:40.081Z,98485.06
2023-05-21T11:30:42.289Z,98488.61
2023-05-21T11:33:47.058Z,98491.72
2023-05-21T11:36:49.327Z,98494.66
2023-05-21T11:39:51.618Z,98491.50
2023-05-21T11:42:55.185Z,98490.27
2023-05-21T11:45:57.274Z,98484.27
2023-05-21T11:49:00.152Z,98483.58
2023-05-21T11:52:04.011Z,98476.41
2023-05-21T11:55:06.732Z,98477.73
2023-05-21T11:58:12.925Z,98477.99
2023-05-21T12:01:27.129Z,98477.73
2023-05-21T12:04:35.781Z,98478.82
2023-05-21T12:07:38.135Z,98475.52
2023-05-21T12:10:39.943Z,98473.15
2023-05-21T12:13:41.902Z,98473.94
2023-05-21T12:16:43.643Z,98472.74
2023-05-21T12:19:46.808Z,98471.65
2023-05-21T12:22:49.286Z,98466.86
2023-05-21T12:25:52.928Z,98462.77
2023-05-21T12:28:55.611Z,98470.20
2023-05-21T12:32:05.884Z,98467.52
2023-05-21T12:35:08.132Z,98467.77
2023-05-21T12:38:09.774Z,98469.10
2023-05-21T12:41:14.262Z,98464.00
2023-05-21T12:44:16.093Z,98459.89
2023-05-21T12:47:17.888Z,98462.42
2023-05-21T12:50:21.099Z,98460.80
2023-05-21T12:53:22.944Z,98460.30
2023-05-21T12:56:25.436Z,98456.90
2023-05-21T12:59:27.207Z,98453.04
2023-05-21T13:02:32.509Z,98452.84
2023-05-21T13:05:34.942Z,98456.08
2023-05-21T13:08:37.844Z,98448.06
2023-05-21T13:11:39.711Z,98451.23
2023-05-21T13:14:41.403Z,98450.96
2023-05-21T13:17:44.602Z,98450.77
2023-05-21T13:20:47.275Z,98451.77
2023-05-21T13:23:49.589Z,98450.02
2023-05-21T13:26:51.497Z,98445.16
2023-05-21T13:29:53.336Z,98444.42
2023-05-21T13:32:55.318Z,98442.17
2023-05-21T13:35:57.202Z,98436.84
2023-05-21T13:38:58.894Z,98438.27
2023-05-21T13:42:01.292Z,98432.71
2023-05-21T13:45:03.875Z,98436.34
2023-05-21T13:48:05.916Z,98435.55
2023-05-21T13:51:07.756Z,98434.37
2023-05-21T13:54:09.413Z,98435.11
2023-05-21T13:57:11.121Z,98434.65
2023-05-21T14:00:14.666Z,98427.64
2023-05-21T14:03:16.378Z,98428.71
2023-05-21T14:06:18.219Z,98431.50
2023-05-21T14:09:20.214Z,98421.52
2023-05-21T14:12:22.020Z,98425.95
2023-05-21T14:15:23.720Z,98424.61
2023-05-21T14:18:25.471Z,98423.19
2023-05-21T14:21:27.192Z,98425.70
2023-05-21T14:24:29.008Z,98425.98
2023-05-21T14:27:30.695Z,98423.39
2023-05-21T14:30:32.490Z,98423.14
2023-05-21T14:33:36.107Z,98426.30
2023-05-21T14:36:37.842Z,98420.71
2023-05-21T14:39:40.758Z,98423.06
2023-05-21T14:42:44.972Z,98422.45
2023-05-21T14:45:46.984Z,98422.98
2023-05-21T14:48:48.818Z,98424.27
2023-05-21T14:51:50.820Z,98423.29
2023-05-21T14:54:52.879Z,98417.61
2023-05-21T14:57:55.312Z,98421.55
2023-05-21T15:00:58.470Z,98422.31
2023-05-21T15:04:02.168Z,98420.27
2023-05-21T15:07:04.167Z,98422.08
2023-05-21T15:10:06.618Z,98422.80
2023-05-21T15:13:08.474Z,98422.48
2023-05-21T15:16:10.254Z,98422.03
2023-05-21T15:19:11.977Z,98419.56
2023-05-21T15:22:13.712Z,98423.92
2023-05-21T15:25:18.487Z,98429.61
2023-05-21T15:28:20.289Z,98421.91
2023-05-21T15:31:22.189Z,98424.00
2023-05-21T15:34:23.871Z,98420.20
2023-05-21T15:37:25.866Z,98420.73
2023-05-21T15:40:27.557Z,98419.16
2023-05-21T15:43:29.289Z,98418.23
2023-05-21T15:46:31.009Z,98419.23
2023-05-21T15:49:33.271Z,98414.13
2023-05-21T15:52:36.557Z,98411.78
2023-05-21T15:55:38.650Z,98407.64
2023-05-21T15:58:40.713Z,98408.55
2023-05-21T16:01:42.822Z,98410.20
2023-05-21T16:04:46.195Z,98414.34
2023-05-21T16:07:48.527Z,98411.70
2023-05-21T16:10:50.273Z,98414.13
2023-05-21T16:13:53.320Z,98418.69
2023-05-21T16:16:57.913Z,98419.70
2023-05-21T16:19:59.813Z,98417.88
2023-05-21T16:23:03.048Z,98416.09
2023-05-21T16:26:06.263Z,98411.61
2023-05-21T16:29:07.995Z,98414.23
2023-05-21T16:32:12.231Z,98417.55
2023-05-21T16:35:14.236Z,98414.70
2023-05-21T16:38:16.026Z,98412.66
2023-05-21T16:41:20.205Z,98414.77
2023-05-21T16:44:21.971Z,98413.66
2023-05-21T16:47:23.674Z,98413.08
2023-05-21T16:50:25.952Z,98418.09
2023-05-21T16:53:27.832Z,98413.00
2023-05-21T16:56:30.806Z,98420.20
2023-05-21T16:59:34.804Z,98420.86
2023-05-21T17:02:37.960Z,98420.18
2023-05-21T17:05:39.949Z,98425.94
2023-05-21T17:08:42.145Z,98422.91
2023-05-21T17:11:44.223Z,98423.37
2023-05-21T17:14:45.891Z,98425.62
2023-05-21T17:17:47.901Z,98429.98
2023-05-21T17:20:49.874Z,98430.52
2023-05-21T17:23:53.061Z,98430.67
2023-05-21T17:26:54.838Z,98426.73
2023-05-21T17:29:57.220Z,98424.86
2023-05-21T17:33:01.247Z,98425.23
2023-05-21T17:36:03.181Z,98427.36
2023-05-21T17:39:05.027Z,98426.50
2023-05-21T17:42:06.886Z,98423.48
2023-05-21T17:45:08.968Z,98424.50
2023-05-21T17:48:11.350Z,98427.00
2023-05-21T17:51:13.264Z,98431.23
2023-05-21T17:54:15.303Z,98437.49
2023-05-21T17:57:19.032Z,98442.30
2023-05-21T18:00:20.843Z,98444.84
2023-05-21T18:03:22.645Z,98443.15
2023-05-21T18:06:24.399Z,98449.55
2023-05-21T18:09:28.708Z,98449.98
2023-05-21T18:12:30.504Z,98450.37
2023-05-21T18:15:32.903Z,98448.02
2023-05-21T18:18:34.650Z,98448.33
2023-05-21T18:21:36.961Z,98448.67
2023-05-21T18:24:39.301Z,98449.14
2023-05-21T18:27:41.248Z,98442.22
2023-05-21T18:30:43.321Z,98443.77
2023-05-21T18:33:45.112Z,98445.31
2023-05-21T18:36:47.747Z,98445.25
2023-05-21T18:39:49.556Z,98446.14
2023-05-21T18:42:51.469Z,98448.42
2023-05-21T18:45:53.278Z,98447.23
2023-05-21T18:48:58.109Z,98443.59
2023-05-21T18:51:59.980Z,98441.81
2023-05-21T18:55:02.096Z,98444.22
2023-05-21T18:58:03.799Z,98442.33
2023-05-21T19:01:05.918Z,98452.02
2023-05-21T19:04:07.590Z,98450.95
2023-05-21T19:07:09.321Z,98454.74
2023-05-21T19:10:11.943Z,98455.17
2023-05-21T19:13:14.234Z,98459.76
2023-05-21T19:16:16.024Z,98458.34
2023-05-21T19:19:17.946Z,98461.67
2023-05-21T19:22:19.774Z,98465.23
2023-05-21T19:25:21.590Z,98469.20
2023-05-21T19:28:23.362Z,98467.61
2023-05-21T19:31:25.628Z,98467.02
2023-05-21T19:34:27.575Z,98471.11
2023-05-21T19:37:29.399Z,98471.77
2023-05-21T19:40:31.188Z,98467.16
2023-05-21T19:43:32.909Z,98473.58
2023-05-21T19:46:34.751Z,98469.42
2023-05-21T19:49:36.669Z,98471.73
2023-05-21T19:52:38.787Z,98469.25
2023-05-21T19:55:40.523Z,98467.90
2023-05-21T19:58:46.390Z,98467.65
2023-05-21T20:01:48.291Z,98463.56
2023-05-21T20:04:50.706Z,98466.19
2023-05-21T20:07:52.377Z,98464.66
2023-05-21T20:10:54.210Z,98461.94
2023-05-21T20:13:56.679Z,98465.69
2023-05-21T20:16:58.605Z,98461.67
2023-05-21T20:20:00.861Z,98458.63
2023-05-21T20:23:03.047Z,98460.23
2023-05-21T20:26:04.858Z,98460.11
2023-05-21T20:29:07.358Z,98462.39
2023-05-21T20:32:09.437Z,98463.95
2023-05-21T20:35:11.892Z,98464.65
2023-05-21T20:38:15.168Z,98465.73
2023-05-21T20:41:17.237Z,98469.73
2023-05-21T20:44:20.667Z,98469.90
2023-05-21T20:47:22.768Z,98469.83
2023-05-21T20:50:25.396Z,98470.42
2023-05-21T20:53:27.185Z,98471.87
2023-05-21T20:56:40.931Z,98474.89
2023-05-21T20:59:43.686Z,98475.22
2023-05-21T21:02:45.574Z,98470.21
2023-05-21T21:05:47.606Z,98463.50
2023-05-21T21:08:49.497Z,98461.60
2023-05-21T21:11:51.312Z,98459.95
2023-05-21T21:14:53.515Z,98456.81
2023-05-21T21:17:55.254Z,98459.52
2023-05-21T21:20:57.072Z,98456.56
2023-05-21T21:23:58.837Z,98463.61
2023-05-21T21:27:00.836Z,98461.21
2023-05-21T21:30:04.068Z,98462.20
2023-05-21T21:33:07.304Z,98461.88
2023-05-21T21:36:12.367Z,98467.04
2023-05-21T21:39:14.051Z,98465.48
2023-05-21T21:42:15.791Z,98459.52
2023-05-21T21:45:17.732Z,98460.83
2023-05-21T21:48:19.432Z,98463.56
2023-05-21T21:51:23.130Z,98464.05
2023-05-21T21:54:27.023Z,98465.77
2023-05-21T21:57:29.398Z,98470.44
2023-05-21T22:00:31.196Z,98470.50
2023-05-21T22:03:36.224Z,98471.92
2023-05-21T22:06:38.424Z,98464.23
2023-05-21T22:09:40.071Z,98465.21
2023-05-21T22:12:42.897Z,98461.02
2023-05-21T22:15:45.203Z,98454.93
2023-05-21T22:18:46.924Z,98456.08
2023-05-21T22:21:49.522Z,98458.91
2023-05-21T22:24:54.435Z,98458.04
2023-05-21T22:27:56.242Z,98458.31
2023-05-21T22:30:58.562Z,98462.27
2023-05-21T22:34:00.361Z,98459.12
2023-05-21T22:37:02.127Z,98457.48
2023-05-21T22:40:06.302Z,98458.06
2023-05-21T22:43:08.155Z,98456.16
2023-05-21T22:46:10.196Z,98457.44
2023-05-21T22:49:11.909Z,98458.46
2023-05-21T22:52:13.941Z,98457.56
2023-05-21T22:55:15.806Z,98459.32
2023-05-21T22:58:17.945Z,98456.02
2023-05-21T23:01:19.784Z,98459.89
2023-05-21T23:04:40.140Z,98457.94
2023-05-21T23:07:45.982Z,98453.48
2023-05-21T23:10:47.866Z,98452.17
2023-05-21T23:13:49.588Z,98456.01
2023-05-21T23:16:53.275Z,98457.95
2023-05-21T23:19:55.540Z,98456.70
2023-05-21T23:22:57.335Z,98453.72
2023-05-21T23:25:59.699Z,98449.74
2023-05-21T23:29:01.736Z,98448.23
2023-05-21T23:32:04.468Z,98446.41
2023-05-21T23:35:08.655Z,98444.35
2023-05-21T23:38:10.452Z,98441.77
2023-05-21T23:41:12.762Z,98440.26
2023-05-21T23:44:14.954Z,98441.92
2023-05-21T23:47:16.565Z,98444.40
2023-05-21T23:50:18.335Z,98440.71
2023-05-21T23:53:20.193Z,98442.85
2023-05-21T23:56:22.138Z,98437.83
2023-05-21T23:59:23.888Z,98441.68
